sensor_id;sensor_type;location;lat;lon;timestamp;pressure;altitude;pressure_sealevel;temperature;humidity
54194;BME280;40102;50.906;6.972;2023-04-30T00:01:38;101528.88;;;12.59;73.54
54194;BME280;40102;50.906;6.972;2023-04-30T00:04:04;101533.38;;;12.58;73.30
54194;BME280;40102;50.906;6.972;2023-04-30T00:06:29;101535.28;;;12.56;73.53
54194;BME280;40102;50.906;6.972;2023-04-30T00:08:55;101537.09;;;12.56;73.57
54194;BME280;40102;50.906;6.972;2023-04-30T00:11:20;101543.41;;;12.55;73.35
54194;BME280;40102;50.906;6.972;2023-04-30T00:13:46;101538.19;;;12.52;73.76
54194;BME280;40102;50.906;6.972;2023-04-30T00:16:11;101538.19;;;12.52;73.68
54194;BME280;40102;50.906;6.972;2023-04-30T00:18:37;101540.00;;;12.51;73.78
54194;BME280;40102;50.906;6.972;2023-04-30T00:21:03;101540.94;;;12.50;73.62
54194;BME280;40102;50.906;6.972;2023-04-30T00:23:28;101541.91;;;12.49;73.57
54194;BME280;40102;50.906;6.972;2023-04-30T00:25:53;101539.28;;;12.48;73.63
54194;BME280;40102;50.906;6.972;2023-04-30T00:28:19;101548.44;;;12.44;73.82
54194;BME280;40102;50.906;6.972;2023-04-30T00:30:44;101552.06;;;12.43;73.58
54194;BME280;40102;50.906;6.972;2023-04-30T00:33:11;101553.00;;;12.42;73.69
54194;BME280;40102;50.906;6.972;2023-04-30T00:35:36;101552.31;;;12.38;73.67
54194;BME280;40102;50.906;6.972;2023-04-30T00:38:02;101556.00;;;12.36;73.74
54194;BME280;40102;50.906;6.972;2023-04-30T00:40:27;101557.91;;;12.33;73.73
54194;BME280;40102;50.906;6.972;2023-04-30T00:42:52;101553.56;;;12.31;73.61
54194;BME280;40102;50.906;6.972;2023-04-30T00:45:23;101553.72;;;12.28;73.82
54194;BME280;40102;50.906;6.972;2023-04-30T00:47:48;101554.72;;;12.25;73.84
54194;BME280;40102;50.906;6.972;2023-04-30T00:50:14;101554.81;;;12.24;74.20
54194;BME280;40102;50.906;6.972;2023-04-30T00:52:46;101555.81;;;12.21;73.85
54194;BME280;40102;50.906;6.972;2023-04-30T00:55:15;101554.09;;;12.20;74.21
54194;BME280;40102;50.906;6.972;2023-04-30T00:57:41;101554.16;;;12.19;74.15
54194;BME280;40102;50.906;6.972;2023-04-30T01:00:07;101554.16;;;12.19;74.14
54194;BME280;40102;50.906;6.972;2023-04-30T01:02:38;101554.16;;;12.19;73.94
54194;BME280;40102;50.906;6.972;2023-04-30T01:05:05;101556.84;;;12.19;74.01
54194;BME280;40102;50.906;6.972;2023-04-30T01:07:31;101552.41;;;12.18;73.85
54194;BME280;40102;50.906;6.972;2023-04-30T01:09:57;101555.09;;;12.18;73.69
54194;BME280;40102;50.906;6.972;2023-04-30T01:13:17;101550.69;;;12.17;73.69
54194;BME280;40102;50.906;6.972;2023-04-30T01:15:29;101555.97;;;12.18;73.32
54194;BME280;40102;50.906;6.972;2023-04-30T01:20:28;101563.22;;;12.16;73.18
54194;BME280;40102;50.906;6.972;2023-04-30T01:23:24;101560.53;;;12.16;73.37
54194;BME280;40102;50.906;6.972;2023-04-30T01:28:35;101565.09;;;12.14;73.10
54194;BME280;40102;50.906;6.972;2023-04-30T01:31:01;101555.41;;;12.12;72.95
54194;BME280;40102;50.906;6.972;2023-04-30T01:33:26;101561.63;;;12.12;72.98
54194;BME280;40102;50.906;6.972;2023-04-30T01:36:09;101564.53;;;12.08;72.95
54194;BME280;40102;50.906;6.972;2023-04-30T01:41:16;101559.25;;;12.06;72.83
54194;BME280;40102;50.906;6.972;2023-04-30T01:44:23;101566.50;;;12.04;72.65
54194;BME280;40102;50.906;6.972;2023-04-30T01:49:50;101563.97;;;12.01;72.06
54194;BME280;40102;50.906;6.972;2023-04-30T01:52:38;101564.03;;;11.99;71.92
54194;BME280;40102;50.906;6.972;2023-04-30T01:55:09;101565.78;;;12.00;71.87
54194;BME280;40102;50.906;6.972;2023-04-30T01:57:38;101569.47;;;11.98;71.98
54194;BME280;40102;50.906;6.972;2023-04-30T02:00:07;101560.56;;;11.97;71.96
54194;BME280;40102;50.906;6.972;2023-04-30T02:02:36;101563.31;;;11.96;71.71
54194;BME280;40102;50.906;6.972;2023-04-30T02:05:01;101563.31;;;11.96;71.94
54194;BME280;40102;50.906;6.972;2023-04-30T02:07:41;101561.66;;;11.93;71.45
54194;BME280;40102;50.906;6.972;2023-04-30T02:10:08;101558.09;;;11.93;71.62
54194;BME280;40102;50.906;6.972;2023-04-30T02:12:34;101565.34;;;11.91;71.63
54194;BME280;40102;50.906;6.972;2023-04-30T02:15:00;101568.19;;;11.88;71.35
54194;BME280;40102;50.906;6.972;2023-04-30T02:17:26;101567.31;;;11.87;71.84
54194;BME280;40102;50.906;6.972;2023-04-30T02:19:51;101568.25;;;11.86;71.41
54194;BME280;40102;50.906;6.972;2023-04-30T02:22:17;101577.31;;;11.84;71.38
54194;BME280;40102;50.906;6.972;2023-04-30T02:24:42;101561.28;;;11.82;71.44
54194;BME280;40102;50.906;6.972;2023-04-30T02:27:07;101563.03;;;11.83;71.44
54194;BME280;40102;50.906;6.972;2023-04-30T02:29:36;101558.63;;;11.82;71.12
54194;BME280;40102;50.906;6.972;2023-04-30T02:32:01;101559.63;;;11.80;71.09
54194;BME280;40102;50.906;6.972;2023-04-30T02:34:27;101554.34;;;11.78;71.09
54194;BME280;40102;50.906;6.972;2023-04-30T02:36:52;101557.97;;;11.77;71.02
54194;BME280;40102;50.906;6.972;2023-04-30T02:39:17;101556.19;;;11.76;70.96
54194;BME280;40102;50.906;6.972;2023-04-30T02:41:43;101561.63;;;11.75;70.83
54194;BME280;40102;50.906;6.972;2023-04-30T02:44:08;101562.63;;;11.72;70.91
54194;BME280;40102;50.906;6.972;2023-04-30T02:46:34;101561.78;;;11.72;70.67
54194;BME280;40102;50.906;6.972;2023-04-30T02:48:59;101570.03;;;11.67;70.48
54194;BME280;40102;50.906;6.972;2023-04-30T02:51:25;101557.84;;;11.60;70.48
54194;BME280;40102;50.906;6.972;2023-04-30T02:53:51;101552.63;;;11.57;70.66
54194;BME280;40102;50.906;6.972;2023-04-30T02:56:16;101563.50;;;11.54;70.63
54194;BME280;40102;50.906;6.972;2023-04-30T02:58:41;101562.69;;;11.52;70.63
54194;BME280;40102;50.906;6.972;2023-04-30T03:01:07;101573.41;;;11.52;70.43
54194;BME280;40102;50.906;6.972;2023-04-30T03:03:32;101573.34;;;11.53;70.60
54194;BME280;40102;50.906;6.972;2023-04-30T03:05:58;101571.53;;;11.54;70.33
54194;BME280;40102;50.906;6.972;2023-04-30T03:08:24;101566.31;;;11.51;70.35
54194;BME280;40102;50.906;6.972;2023-04-30T03:10:49;101572.69;;;11.48;70.20
54194;BME280;40102;50.906;6.972;2023-04-30T03:13:15;101579.84;;;11.48;70.17
54194;BME280;40102;50.906;6.972;2023-04-30T03:15:40;101573.69;;;11.46;70.12
54194;BME280;40102;50.906;6.972;2023-04-30T03:18:05;101589.91;;;11.43;69.96
54194;BME280;40102;50.906;6.972;2023-04-30T03:20:31;101585.44;;;11.43;70.07
54194;BME280;40102;50.906;6.972;2023-04-30T03:22:56;101579.34;;;11.40;70.12
54194;BME280;40102;50.906;6.972;2023-04-30T03:25:21;101572.38;;;11.35;69.73
54194;BME280;40102;50.906;6.972;2023-04-30T03:27:47;101568.44;;;11.24;69.39
54194;BME280;40102;50.906;6.972;2023-04-30T03:30:12;101577.16;;;11.09;70.63
54194;BME280;40102;50.906;6.972;2023-04-30T03:32:38;101566.66;;;11.04;71.26
54194;BME280;40102;50.906;6.972;2023-04-30T03:35:04;101569.34;;;11.04;71.21
54194;BME280;40102;50.906;6.972;2023-04-30T03:37:29;101578.03;;;11.09;70.97
54194;BME280;40102;50.906;6.972;2023-04-30T03:39:55;101572.53;;;11.12;70.77
54194;BME280;40102;50.906;6.972;2023-04-30T03:42:20;101568.84;;;11.15;70.54
54194;BME280;40102;50.906;6.972;2023-04-30T03:44:45;101572.34;;;11.17;70.28
54194;BME280;40102;50.906;6.972;2023-04-30T03:47:11;101573.13;;;11.19;70.03
54194;BME280;40102;50.906;6.972;2023-04-30T03:49:36;101576.69;;;11.19;69.89
54194;BME280;40102;50.906;6.972;2023-04-30T03:52:04;101574.94;;;11.18;69.96
54194;BME280;40102;50.906;6.972;2023-04-30T03:54:31;101575.75;;;11.20;69.34
54194;BME280;40102;50.906;6.972;2023-04-30T03:56:58;101581.16;;;11.19;69.58
54194;BME280;40102;50.906;6.972;2023-04-30T03:59:24;101576.75;;;11.18;69.60
54194;BME280;40102;50.906;6.972;2023-04-30T04:01:52;101566.97;;;11.17;69.57
54194;BME280;40102;50.906;6.972;2023-04-30T04:04:18;101565.31;;;11.14;69.44
54194;BME280;40102;50.906;6.972;2023-04-30T04:06:43;101565.38;;;11.13;69.45
54194;BME280;40102;50.906;6.972;2023-04-30T04:09:09;101566.31;;;11.12;69.36
54194;BME280;40102;50.906;6.972;2023-04-30T04:11:34;101565.44;;;11.11;69.64
54194;BME280;40102;50.906;6.972;2023-04-30T04:13:59;101570.81;;;11.11;69.61
54194;BME280;40102;50.906;6.972;2023-04-30T04:16:25;101574.28;;;11.13;69.70
54194;BME280;40102;50.906;6.972;2023-04-30T04:18:51;101572.53;;;11.12;69.49
54194;BME280;40102;50.906;6.972;2023-04-30T04:21:16;101562.69;;;11.13;69.47
54194;BME280;40102;50.906;6.972;2023-04-30T04:23:42;101580.50;;;11.14;69.58
54194;BME280;40102;50.906;6.972;2023-04-30T04:26:07;101575.22;;;11.12;69.54
54194;BME280;40102;50.906;6.972;2023-04-30T04:28:34;101585.06;;;11.12;69.67
54194;BME280;40102;50.906;6.972;2023-04-30T04:31:01;101590.63;;;11.07;69.91
54194;BME280;40102;50.906;6.972;2023-04-30T04:33:27;101590.63;;;11.07;70.25
54194;BME280;40102;50.906;6.972;2023-04-30T04:35:53;101591.56;;;11.06;70.40
54194;BME280;40102;50.906;6.972;2023-04-30T04:38:19;101588.13;;;11.02;70.61
54194;BME280;40102;50.906;6.972;2023-04-30T04:40:53;101588.06;;;11.04;70.44
54194;BME280;40102;50.906;6.972;2023-04-30T04:43:19;101587.28;;;11.02;70.68
54194;BME280;40102;50.906;6.972;2023-04-30T04:45:44;101598.03;;;11.00;70.70
54194;BME280;40102;50.906;6.972;2023-04-30T04:48:11;101592.81;;;10.97;70.63
54194;BME280;40102;50.906;6.972;2023-04-30T04:50:36;101589.22;;;10.98;70.94
54194;BME280;40102;50.906;6.972;2023-04-30T04:53:02;101584.72;;;10.99;70.96
54194;BME280;40102;50.906;6.972;2023-04-30T04:55:27;101589.22;;;10.98;71.19
54194;BME280;40102;50.906;6.972;2023-04-30T04:57:52;101594.50;;;11.00;70.96
54194;BME280;40102;50.906;6.972;2023-04-30T05:00:18;101591.03;;;10.98;71.36
54194;BME280;40102;50.906;6.972;2023-04-30T05:02:46;101596.31;;;10.99;71.22
54194;BME280;40102;50.906;6.972;2023-04-30T05:05:11;101601.66;;;10.99;71.31
54194;BME280;40102;50.906;6.972;2023-04-30T05:07:37;101601.72;;;10.98;71.43
54194;BME280;40102;50.906;6.972;2023-04-30T05:10:02;101605.22;;;11.00;71.34
54194;BME280;40102;50.906;6.972;2023-04-30T05:12:28;101607.88;;;11.00;71.81
54194;BME280;40102;50.906;6.972;2023-04-30T05:14:53;101607.81;;;11.01;71.56
54194;BME280;40102;50.906;6.972;2023-04-30T05:17:18;101603.41;;;11.00;71.73
54194;BME280;40102;50.906;6.972;2023-04-30T05:19:44;101609.56;;;11.02;71.83
54194;BME280;40102;50.906;6.972;2023-04-30T05:22:11;101614.84;;;11.04;71.79
54194;BME280;40102;50.906;6.972;2023-04-30T05:24:39;101618.38;;;11.04;71.71
54194;BME280;40102;50.906;6.972;2023-04-30T05:27:05;101624.56;;;11.07;71.63
54194;BME280;40102;50.906;6.972;2023-04-30T05:29:30;101614.78;;;11.06;71.57
54194;BME280;40102;50.906;6.972;2023-04-30T05:31:56;101622.75;;;11.07;71.67
54194;BME280;40102;50.906;6.972;2023-04-30T05:34:21;101624.47;;;11.08;71.57
54194;BME280;40102;50.906;6.972;2023-04-30T05:36:47;101624.41;;;11.10;71.80
54194;BME280;40102;50.906;6.972;2023-04-30T05:39:12;101630.66;;;11.10;71.67
54194;BME280;40102;50.906;6.972;2023-04-30T05:41:38;101629.78;;;11.10;71.73
54194;BME280;40102;50.906;6.972;2023-04-30T05:44:04;101637.75;;;11.11;71.91
54194;BME280;40102;50.906;6.972;2023-04-30T05:46:29;101632.31;;;11.13;71.78
54194;BME280;40102;50.906;6.972;2023-04-30T05:48:55;101637.59;;;11.14;71.76
54194;BME280;40102;50.906;6.972;2023-04-30T05:51:20;101630.50;;;11.13;71.69
54194;BME280;40102;50.906;6.972;2023-04-30T05:53:45;101635.72;;;11.16;71.89
54194;BME280;40102;50.906;6.972;2023-04-30T05:56:11;101638.41;;;11.16;71.96
54194;BME280;40102;50.906;6.972;2023-04-30T05:58:38;101637.53;;;11.16;72.21
54194;BME280;40102;50.906;6.972;2023-04-30T06:01:03;101642.81;;;11.17;72.39
54194;BME280;40102;50.906;6.972;2023-04-30T06:03:29;101640.94;;;11.19;72.25
54194;BME280;40102;50.906;6.972;2023-04-30T06:05:55;101642.69;;;11.20;72.47
54194;BME280;40102;50.906;6.972;2023-04-30T06:08:20;101639.94;;;11.22;72.27
54194;BME280;40102;50.906;6.972;2023-04-30T06:10:46;101635.59;;;11.19;71.96
54194;BME280;40102;50.906;6.972;2023-04-30T06:13:11;101631.25;;;11.17;71.64
54194;BME280;40102;50.906;6.972;2023-04-30T06:15:38;101631.38;;;11.14;71.99
54194;BME280;40102;50.906;6.972;2023-04-30T06:18:04;101623.34;;;11.14;72.20
54194;BME280;40102;50.906;6.972;2023-04-30T06:20:29;101626.91;;;11.14;71.98
54194;BME280;40102;50.906;6.972;2023-04-30T06:22:54;101625.81;;;11.18;72.19
54194;BME280;40102;50.906;6.972;2023-04-30T06:25:20;101625.69;;;11.21;71.92
54194;BME280;40102;50.906;6.972;2023-04-30T06:27:45;101629.97;;;11.25;71.71
54194;BME280;40102;50.906;6.972;2023-04-30T06:30:11;101622.59;;;11.30;71.67
54194;BME280;40102;50.906;6.972;2023-04-30T06:32:37;101628.63;;;11.35;71.11
54194;BME280;40102;50.906;6.972;2023-04-30T06:35:03;101630.22;;;11.40;70.95
54194;BME280;40102;50.906;6.972;2023-04-30T06:37:29;101629.16;;;11.44;70.68
54194;BME280;40102;50.906;6.972;2023-04-30T06:39:54;101629.09;;;11.45;70.73
54194;BME280;40102;50.906;6.972;2023-04-30T06:42:19;101632.56;;;11.47;70.39
54194;BME280;40102;50.906;6.972;2023-04-30T06:44:45;101631.50;;;11.51;70.20
54194;BME280;40102;50.906;6.972;2023-04-30T06:47:11;101636.63;;;11.56;70.28
54194;BME280;40102;50.906;6.972;2023-04-30T06:49:36;101634.75;;;11.58;69.91
54194;BME280;40102;50.906;6.972;2023-04-30T06:52:02;101632.09;;;11.58;69.95
54194;BME280;40102;50.906;6.972;2023-04-30T06:54:27;101634.84;;;11.56;69.83
54194;BME280;40102;50.906;6.972;2023-04-30T06:56:53;101635.69;;;11.57;70.45
54194;BME280;40102;50.906;6.972;2023-04-30T06:59:18;101632.09;;;11.58;70.07
54194;BME280;40102;50.906;6.972;2023-04-30T07:01:44;101632.69;;;11.64;70.16
54194;BME280;40102;50.906;6.972;2023-04-30T07:04:11;101626.31;;;11.67;69.88
54194;BME280;40102;50.906;6.972;2023-04-30T07:06:36;101624.28;;;11.72;69.88
54194;BME280;40102;50.906;6.972;2023-04-30T07:09:02;101617.91;;;11.75;69.69
54194;BME280;40102;50.906;6.972;2023-04-30T07:11:28;101618.66;;;11.78;69.73
54194;BME280;40102;50.906;6.972;2023-04-30T07:13:53;101610.50;;;11.81;69.82
54194;BME280;40102;50.906;6.972;2023-04-30T07:16:18;101608.59;;;11.83;69.70
54194;BME280;40102;50.906;6.972;2023-04-30T07:18:44;101609.25;;;11.88;69.59
54194;BME280;40102;50.906;6.972;2023-04-30T07:21:13;101613.75;;;11.88;69.78
54194;BME280;40102;50.906;6.972;2023-04-30T07:23:38;101619.97;;;11.88;71.86
54194;BME280;40102;50.906;6.972;2023-04-30T07:26:04;101613.41;;;11.75;71.60
54194;BME280;40102;50.906;6.972;2023-04-30T07:28:30;101614.66;;;11.68;71.86
54194;BME280;40102;50.906;6.972;2023-04-30T07:30:55;101627.91;;;11.71;71.77
54194;BME280;40102;50.906;6.972;2023-04-30T07:33:20;101617.91;;;11.75;71.66
54194;BME280;40102;50.906;6.972;2023-04-30T07:35:46;101619.41;;;11.82;71.09
54194;BME280;40102;50.906;6.972;2023-04-30T07:38:11;101618.38;;;11.84;70.55
54194;BME280;40102;50.906;6.972;2023-04-30T07:40:37;101612.16;;;11.84;70.81
54194;BME280;40102;50.906;6.972;2023-04-30T07:43:02;101614.69;;;11.87;71.12
54194;BME280;40102;50.906;6.972;2023-04-30T07:45:29;101615.34;;;11.92;71.03
54194;BME280;40102;50.906;6.972;2023-04-30T07:47:55;101609.69;;;11.98;70.84
54194;BME280;40102;50.906;6.972;2023-04-30T07:50:20;101610.19;;;12.06;70.00
54194;BME280;40102;50.906;6.972;2023-04-30T07:52:48;101621.50;;;12.13;69.84
54194;BME280;40102;50.906;6.972;2023-04-30T07:55:14;101611.44;;;12.18;69.71
54194;BME280;40102;50.906;6.972;2023-04-30T07:57:40;101616.56;;;12.22;69.28
54194;BME280;40102;50.906;6.972;2023-04-30T08:00:06;101618.09;;;12.28;69.18
54194;BME280;40102;50.906;6.972;2023-04-30T08:02:32;101610.81;;;12.30;69.04
54194;BME280;40102;50.906;6.972;2023-04-30T08:04:58;101615.09;;;12.34;68.87
54194;BME280;40102;50.906;6.972;2023-04-30T08:07:23;101617.84;;;12.32;68.18
54194;BME280;40102;50.906;6.972;2023-04-30T08:09:49;101607.28;;;12.29;67.80
54194;BME280;40102;50.906;6.972;2023-04-30T08:12:15;101611.78;;;12.29;68.49
54194;BME280;40102;50.906;6.972;2023-04-30T08:14:41;101615.25;;;12.31;68.43
54194;BME280;40102;50.906;6.972;2023-04-30T08:17:06;101615.81;;;12.38;68.63
54194;BME280;40102;50.906;6.972;2023-04-30T08:19:32;101615.59;;;12.42;68.22
54194;BME280;40102;50.906;6.972;2023-04-30T08:21:57;101611.75;;;12.48;68.04
54194;BME280;40102;50.906;6.972;2023-04-30T08:24:23;101616.81;;;12.54;68.06
54194;BME280;40102;50.906;6.972;2023-04-30T08:26:48;101616.56;;;12.58;67.82
54194;BME280;40102;50.906;6.972;2023-04-30T08:29:17;101613.66;;;12.63;67.80
54194;BME280;40102;50.906;6.972;2023-04-30T08:31:42;101611.63;;;12.68;67.55
54194;BME280;40102;50.906;6.972;2023-04-30T08:34:08;101608.84;;;12.70;67.44
54194;BME280;40102;50.906;6.972;2023-04-30T08:36:33;101607.75;;;12.74;67.34
54194;BME280;40102;50.906;6.972;2023-04-30T08:38:58;101605.94;;;12.74;67.17
54194;BME280;40102;50.906;6.972;2023-04-30T08:41:27;101595.13;;;12.76;67.03
54194;BME280;40102;50.906;6.972;2023-04-30T08:44:00;101608.22;;;12.82;66.81
54194;BME280;40102;50.906;6.972;2023-04-30T08:46:25;101600.03;;;12.85;66.68
54194;BME280;40102;50.906;6.972;2023-04-30T08:48:53;101609.66;;;12.89;65.45
54194;BME280;40102;50.906;6.972;2023-04-30T08:51:19;101604.22;;;12.90;64.99
54194;BME280;40102;50.906;6.972;2023-04-30T08:53:46;101603.03;;;12.96;64.68
54194;BME280;40102;50.906;6.972;2023-04-30T08:56:14;101600.34;;;12.96;64.47
54194;BME280;40102;50.906;6.972;2023-04-30T08:58:40;101593.06;;;12.98;64.23
54194;BME280;40102;50.906;6.972;2023-04-30T09:01:06;101594.66;;;13.02;64.20
54194;BME280;40102;50.906;6.972;2023-04-30T09:03:36;101595.44;;;13.04;64.48
54194;BME280;40102;50.906;6.972;2023-04-30T09:06:02;101593.53;;;13.06;64.31
54194;BME280;40102;50.906;6.972;2023-04-30T09:08:41;101590.53;;;13.12;64.02
54194;BME280;40102;50.906;6.972;2023-04-30T09:11:27;101590.53;;;13.12;63.70
54194;BME280;40102;50.906;6.972;2023-04-30T09:13:56;101592.84;;;13.20;63.00
54194;BME280;40102;50.906;6.972;2023-04-30T09:16:23;101589.06;;;13.24;60.81
54194;BME280;40102;50.906;6.972;2023-04-30T09:18:49;101579.72;;;13.31;60.51
54194;BME280;40102;50.906;6.972;2023-04-30T09:21:15;101575.13;;;13.33;60.68
54194;BME280;40102;50.906;6.972;2023-04-30T09:23:57;101571.56;;;13.33;60.77
54194;BME280;40102;50.906;6.972;2023-04-30T09:26:29;101574.97;;;13.36;60.58
54194;BME280;40102;50.906;6.972;2023-04-30T09:28:56;101573.16;;;13.37;60.58
54194;BME280;40102;50.906;6.972;2023-04-30T09:31:22;101566.75;;;13.39;60.39
54194;BME280;40102;50.906;6.972;2023-04-30T09:33:49;101561.28;;;13.41;59.99
54194;BME280;40102;50.906;6.972;2023-04-30T09:36:14;101557.56;;;13.43;60.06
54194;BME280;40102;50.906;6.972;2023-04-30T09:38:40;101555.75;;;13.44;59.68
54194;BME280;40102;50.906;6.972;2023-04-30T09:41:06;101543.25;;;13.43;59.44
54194;BME280;40102;50.906;6.972;2023-04-30T09:43:45;101555.75;;;13.44;59.49
54194;BME280;40102;50.906;6.972;2023-04-30T09:46:10;101545.06;;;13.42;59.01
54194;BME280;40102;50.906;6.972;2023-04-30T09:48:40;101541.53;;;13.42;58.45
54194;BME280;40102;50.906;6.972;2023-04-30T09:51:06;101543.34;;;13.41;58.28
54194;BME280;40102;50.906;6.972;2023-04-30T09:53:32;101537.78;;;13.44;58.22
54194;BME280;40102;50.906;6.972;2023-04-30T09:56:06;101541.19;;;13.48;57.89
54194;BME280;40102;50.906;6.972;2023-04-30T09:58:36;101542.06;;;13.48;57.72
54194;BME280;40102;50.906;6.972;2023-04-30T10:01:03;101534.78;;;13.50;57.59
54194;BME280;40102;50.906;6.972;2023-04-30T10:03:30;101540.94;;;13.52;57.87
54194;BME280;40102;50.906;6.972;2023-04-30T10:05:56;101536.25;;;13.56;57.45
54194;BME280;40102;50.906;6.972;2023-04-30T10:08:31;101529.75;;;13.60;57.19
54194;BME280;40102;50.906;6.972;2023-04-30T10:11:02;101517.63;;;13.69;57.34
54194;BME280;40102;50.906;6.972;2023-04-30T10:13:30;101521.00;;;13.72;57.22
54194;BME280;40102;50.906;6.972;2023-04-30T10:16:00;101519.38;;;13.70;57.12
54194;BME280;40102;50.906;6.972;2023-04-30T10:18:33;101517.44;;;13.72;57.04
54194;BME280;40102;50.906;6.972;2023-04-30T10:21:02;101512.94;;;13.72;56.74
54194;BME280;40102;50.906;6.972;2023-04-30T10:23:35;101505.75;;;13.73;56.50
54194;BME280;40102;50.906;6.972;2023-04-30T10:26:01;101497.84;;;13.70;55.76
54194;BME280;40102;50.906;6.972;2023-04-30T10:28:28;101495.88;;;13.73;55.23
54194;BME280;40102;50.906;6.972;2023-04-30T10:30:55;101507.41;;;13.75;54.87
54194;BME280;40102;50.906;6.972;2023-04-30T10:33:36;101503.16;;;13.87;54.77
54194;BME280;40102;50.906;6.972;2023-04-30T10:36:11;101498.59;;;14.19;54.82
54194;BME280;40102;50.906;6.972;2023-04-30T10:38:38;101498.47;;;14.36;54.52
54194;BME280;40102;50.906;6.972;2023-04-30T10:41:06;101501.44;;;14.47;53.47
54194;BME280;40102;50.906;6.972;2023-04-30T10:43:34;101492.63;;;14.60;53.71
54194;BME280;40102;50.906;6.972;2023-04-30T10:46:01;101491.09;;;14.70;53.04
54194;BME280;40102;50.906;6.972;2023-04-30T10:48:27;101493.63;;;14.73;52.49
54194;BME280;40102;50.906;6.972;2023-04-30T10:50:56;101486.78;;;14.67;53.09
54194;BME280;40102;50.906;6.972;2023-04-30T10:53:23;101494.84;;;14.67;52.42
54194;BME280;40102;50.906;6.972;2023-04-30T11:01:11;101477.53;;;14.71;52.77
54194;BME280;40102;50.906;6.972;2023-04-30T11:03:39;101474.28;;;14.66;53.02
54194;BME280;40102;50.906;6.972;2023-04-30T11:06:15;101468.78;;;14.68;53.87
54194;BME280;40102;50.906;6.972;2023-04-30T11:08:44;101468.78;;;14.68;54.00
54194;BME280;40102;50.906;6.972;2023-04-30T11:11:11;101459.75;;;14.69;54.30
54194;BME280;40102;50.906;6.972;2023-04-30T11:13:57;101450.91;;;14.67;54.41
54194;BME280;40102;50.906;6.972;2023-04-30T11:16:29;101456.78;;;14.73;54.45
54194;BME280;40102;50.906;6.972;2023-04-30T11:19:13;101450.81;;;14.82;54.31
54194;BME280;40102;50.906;6.972;2023-04-30T11:24:49;101441.59;;;15.15;53.27
54194;BME280;40102;50.906;6.972;2023-04-30T11:27:24;101442.84;;;15.23;53.04
54194;BME280;40102;50.906;6.972;2023-04-30T11:29:51;101440.53;;;15.32;53.86
54194;BME280;40102;50.906;6.972;2023-04-30T11:32:21;101446.28;;;15.40;53.64
54194;BME280;40102;50.906;6.972;2023-04-30T11:34:47;101439.72;;;15.44;53.34
54194;BME280;40102;50.906;6.972;2023-04-30T11:37:28;101435.09;;;15.46;52.79
54194;BME280;40102;50.906;6.972;2023-04-30T11:40:08;101439.34;;;15.50;51.88
54194;BME280;40102;50.906;6.972;2023-04-30T11:42:39;101422.50;;;15.46;50.91
54194;BME280;40102;50.906;6.972;2023-04-30T11:45:07;101431.78;;;15.69;50.54
54194;BME280;40102;50.906;6.972;2023-04-30T11:47:47;101414.56;;;15.84;51.02
54194;BME280;40102;50.906;6.972;2023-04-30T11:50:14;101423.38;;;16.01;50.68
54194;BME280;40102;50.906;6.972;2023-04-30T11:52:41;101430.09;;;16.08;51.32
54194;BME280;40102;50.906;6.972;2023-04-30T11:55:20;101414.88;;;16.07;51.37
54194;BME280;40102;50.906;6.972;2023-04-30T11:57:53;101421.03;;;16.09;51.32
54194;BME280;40102;50.906;6.972;2023-04-30T12:00:28;101408.44;;;16.22;51.19
54194;BME280;40102;50.906;6.972;2023-04-30T12:02:54;101415.91;;;16.31;49.46
54194;BME280;40102;50.906;6.972;2023-04-30T12:05:21;101406.50;;;16.24;49.81
54194;BME280;40102;50.906;6.972;2023-04-30T12:07:49;101399.38;;;16.23;50.13
54194;BME280;40102;50.906;6.972;2023-04-30T12:10:15;101404.56;;;16.26;50.45
54194;BME280;40102;50.906;6.972;2023-04-30T12:12:44;101392.03;;;16.38;51.11
54194;BME280;40102;50.906;6.972;2023-04-30T12:15:19;101388.50;;;16.63;49.90
54194;BME280;40102;50.906;6.972;2023-04-30T12:17:47;101386.69;;;16.89;48.95
54194;BME280;40102;50.906;6.972;2023-04-30T12:20:13;101381.97;;;17.16;46.50
54194;BME280;40102;50.906;6.972;2023-04-30T12:22:40;101374.47;;;17.32;46.05
54194;BME280;40102;50.906;6.972;2023-04-30T12:25:18;101377.03;;;17.46;45.31
54194;BME280;40102;50.906;6.972;2023-04-30T12:28:02;101376.75;;;17.62;47.17
54194;BME280;40102;50.906;6.972;2023-04-30T12:30:27;101370.97;;;17.79;45.53
54194;BME280;40102;50.906;6.972;2023-04-30T12:32:57;101365.91;;;18.10;45.50
54194;BME280;40102;50.906;6.972;2023-04-30T12:35:23;101361.66;;;18.30;43.26
54194;BME280;40102;50.906;6.972;2023-04-30T12:37:51;101372.66;;;18.39;42.53
54194;BME280;40102;50.906;6.972;2023-04-30T12:40:24;101361.19;;;18.36;44.29
54194;BME280;40102;50.906;6.972;2023-04-30T12:42:51;101356.66;;;18.48;42.74
54194;BME280;40102;50.906;6.972;2023-04-30T12:45:46;101373.34;;;18.76;44.36
54194;BME280;40102;50.906;6.972;2023-04-30T12:48:13;101357.97;;;18.88;42.36
54194;BME280;40102;50.906;6.972;2023-04-30T12:50:39;101348.84;;;18.89;42.06
54194;BME280;40102;50.906;6.972;2023-04-30T12:53:05;101344.03;;;19.04;40.89
54194;BME280;40102;50.906;6.972;2023-04-30T12:55:32;101359.13;;;19.40;42.65
54194;BME280;40102;50.906;6.972;2023-04-30T12:58:05;101359.59;;;19.67;39.95
54194;BME280;40102;50.906;6.972;2023-04-30T13:00:44;101360.88;;;19.84;39.40
54194;BME280;40102;50.906;6.972;2023-04-30T13:03:12;101350.97;;;19.62;38.86
54194;BME280;40102;50.906;6.972;2023-04-30T13:05:40;101345.94;;;19.35;38.93
54194;BME280;40102;50.906;6.972;2023-04-30T13:08:05;101346.38;;;19.08;39.81
54194;BME280;40102;50.906;6.972;2023-04-30T13:10:31;101349.09;;;18.97;40.71
54194;BME280;40102;50.906;6.972;2023-04-30T13:12:57;101345.03;;;18.81;41.26